C. Angelo — WCZ5866 — position and weather

sailwx.info

Track history (hours):
 
Tides and Currents Weather Stations Pressure Air Temp Water Temp Dewpoint Dewpoint Depression Visibility Wind Speed Wind Dir Waves Ship Positions

C. Angelo

More information available from US FCC via Universal Licensing System and Coast Guard Vessel Documentation Center.

Last reported at 2014-Sep-16 08:33 UTC. Time now 2014-Sep-16 09:22 UTC.
Position N 41°48' W 071°23'.

Length 30 m; draft 4.1 m.

Type: Tug. MMSI: 366988420.

Date/timePositionNaut miles runAvg speedWind from/ knotsBaromVisibWave heightAir tempDewpointWater temp
2014-Sep-16 08:33N 41°48' W 071°23'0 0.0
2014-Sep-16 07:33N 41°48' W 071°23'0 0.0
2014-Sep-16 06:33N 41°48' W 071°23'0 0.0
2014-Sep-16 05:33N 41°48' W 071°23'0 0.0
2014-Sep-16 04:33N 41°48' W 071°23'0 0.0
2014-Sep-16 03:32N 41°48' W 071°23'0 0.0
2014-Sep-16 02:32N 41°48' W 071°23'0 0.0
2014-Sep-16 01:33N 41°48' W 071°23'0 0.0
2014-Sep-16 00:33N 41°48' W 071°23'0 0.0
2014-Sep-15 23:20N 41°48' W 071°23'0 0.0
2014-Sep-15 22:26N 41°48' W 071°23'0 0.0
2014-Sep-15 21:33N 41°48' W 071°23'0 0.0
2014-Sep-15 20:33N 41°48' W 071°23'0 0.0
2014-Sep-15 19:32N 41°48' W 071°23'0 0.0
2014-Sep-15 18:33N 41°48' W 071°23'0 0.0
2014-Sep-15 17:33N 41°48' W 071°23'0 0.0
2014-Sep-15 16:17N 41°48' W 071°23'0 0.0
2014-Sep-15 15:25N 41°48' W 071°23'0 0.0
2014-Sep-15 14:31N 41°48' W 071°23'0 0.0
2014-Sep-15 11:30N 41°48' W 071°23'0 0.0
2014-Sep-15 10:33N 41°48' W 071°23'3 2.5
2014-Sep-15 09:33N 41°46' W 071°23'6 5.8
2014-Sep-15 08:33N 41°41' W 071°19'6 5.7
2014-Sep-15 07:33N 41°35' W 071°19'4 3.9
2014-Sep-15 06:33N 41°31' W 071°21'3 3.2
2014-Sep-15 05:33N 41°28' W 071°22'5 5.5
2014-Sep-15 04:33N 41°23' W 071°25'6 6.3
2014-Sep-15 03:33N 41°17' W 071°26'6 6.0
2014-Sep-15 02:33N 41°11' W 071°28'5 5.4
2014-Sep-15 01:33N 41°07' W 071°33'6 6.1
2014-Sep-15 00:33N 41°04' W 071°39'6 6.1
2014-Sep-14 23:33N 41°01' W 071°47'6 5.9
2014-Sep-14 22:33N 40°58' W 071°53'6 5.9
2014-Sep-14 21:33N 40°56' W 072°01'6 6.0
2014-Sep-14 20:33N 40°53' W 072°08'6 6.4
2014-Sep-14 19:33N 40°51' W 072°16'6 6.5
2014-Sep-14 18:33N 40°48' W 072°24'6 6.3
2014-Sep-14 17:33N 40°46' W 072°31'6 6.5
2014-Sep-14 16:33N 40°44' W 072°39'6 6.5
2014-Sep-14 15:33N 40°41' W 072°47'7 6.6
2014-Sep-14 14:33N 40°39' W 072°55'6 6.3
2014-Sep-14 13:32N 40°36' W 073°03'6 6.2
2014-Sep-14 12:33N 40°34' W 073°10'6 5.8
2014-Sep-14 11:33N 40°29' W 073°15'6 6.0
2014-Sep-14 10:33N 40°24' W 073°20'6 5.8
2014-Sep-14 09:33N 40°20' W 073°24'6 5.6
2014-Sep-14 08:33N 40°15' W 073°28'6 5.6
2014-Sep-14 07:33N 40°10' W 073°32'5 5.4
2014-Sep-14 06:33N 40°06' W 073°35'5 5.0
2014-Sep-14 05:33N 40°01' W 073°39'5 5.1
2014-Sep-14 04:33N 39°57' W 073°42'6 5.4
2014-Sep-14 03:31N 39°52' W 073°46'5 5.5
2014-Sep-14 02:33N 39°48' W 073°50'6 5.6
2014-Sep-14 01:33N 39°43' W 073°55'23 5.7
2014-Sep-13 21:33N 39°25' W 074°12'155 5.9
2014-Sep-12 19:04N 37°06' W 075°40'8 5.1
2014-Sep-12 17:31N 36°59' W 075°45'6 4.6
2014-Sep-12 16:06N 36°56' W 075°52'3 4.7
2014-Sep-12 15:26N 36°56' W 075°56'5 4.6
2014-Sep-12 14:24N 36°57' W 076°02'1 1.0
2014-Sep-12 13:28N 36°56' W 076°03'2 2.3
2014-Sep-12 12:32N 36°57' W 076°00'4 3.6
2014-Sep-12 11:33N 36°54' W 075°57'5 3.8
2014-Sep-12 10:19N 36°51' W 075°53'  
Track history (hours):
 
Tides and Currents Weather Stations Pressure Air Temp Water Temp Dewpoint Dewpoint Depression Visibility Wind Speed Wind Dir Waves Ship Positions

C. Angelo

More information available from US FCC via Universal Licensing System and Coast Guard Vessel Documentation Center.

Last reported at 2014-Sep-16 08:33 UTC. Time now 2014-Sep-16 09:22 UTC.
Position N 41°48' W 071°23'.

Length 30 m; draft 4.1 m.

Type: Tug. MMSI: 366988420.

Date/timePositionNaut miles runAvg speedWind from/ knotsBaromVisibWave heightAir tempDewpointWater temp
2014-Sep-16 08:33N 41°48' W 071°23'0 0.0
2014-Sep-16 07:33N 41°48' W 071°23'0 0.0
2014-Sep-16 06:33N 41°48' W 071°23'0 0.0
2014-Sep-16 05:33N 41°48' W 071°23'0 0.0
2014-Sep-16 04:33N 41°48' W 071°23'0 0.0
2014-Sep-16 03:32N 41°48' W 071°23'0 0.0
2014-Sep-16 02:32N 41°48' W 071°23'0 0.0
2014-Sep-16 01:33N 41°48' W 071°23'0 0.0
2014-Sep-16 00:33N 41°48' W 071°23'0 0.0
2014-Sep-15 23:20N 41°48' W 071°23'0 0.0
2014-Sep-15 22:26N 41°48' W 071°23'0 0.0
2014-Sep-15 21:33N 41°48' W 071°23'0 0.0
2014-Sep-15 20:33N 41°48' W 071°23'0 0.0
2014-Sep-15 19:32N 41°48' W 071°23'0 0.0
2014-Sep-15 18:33N 41°48' W 071°23'0 0.0
2014-Sep-15 17:33N 41°48' W 071°23'0 0.0
2014-Sep-15 16:17N 41°48' W 071°23'0 0.0
2014-Sep-15 15:25N 41°48' W 071°23'0 0.0
2014-Sep-15 14:31N 41°48' W 071°23'0 0.0
2014-Sep-15 11:30N 41°48' W 071°23'0 0.0
2014-Sep-15 10:33N 41°48' W 071°23'3 2.5
2014-Sep-15 09:33N 41°46' W 071°23'6 5.8
2014-Sep-15 08:33N 41°41' W 071°19'6 5.7
2014-Sep-15 07:33N 41°35' W 071°19'4 3.9
2014-Sep-15 06:33N 41°31' W 071°21'3 3.2
2014-Sep-15 05:33N 41°28' W 071°22'5 5.5
2014-Sep-15 04:33N 41°23' W 071°25'6 6.3
2014-Sep-15 03:33N 41°17' W 071°26'6 6.0
2014-Sep-15 02:33N 41°11' W 071°28'5 5.4
2014-Sep-15 01:33N 41°07' W 071°33'6 6.1
2014-Sep-15 00:33N 41°04' W 071°39'6 6.1
2014-Sep-14 23:33N 41°01' W 071°47'6 5.9
2014-Sep-14 22:33N 40°58' W 071°53'6 5.9
2014-Sep-14 21:33N 40°56' W 072°01'6 6.0
2014-Sep-14 20:33N 40°53' W 072°08'6 6.4
2014-Sep-14 19:33N 40°51' W 072°16'6 6.5
2014-Sep-14 18:33N 40°48' W 072°24'6 6.3
2014-Sep-14 17:33N 40°46' W 072°31'6 6.5
2014-Sep-14 16:33N 40°44' W 072°39'6 6.5
2014-Sep-14 15:33N 40°41' W 072°47'7 6.6
2014-Sep-14 14:33N 40°39' W 072°55'6 6.3
2014-Sep-14 13:32N 40°36' W 073°03'6 6.2
2014-Sep-14 12:33N 40°34' W 073°10'6 5.8
2014-Sep-14 11:33N 40°29' W 073°15'6 6.0
2014-Sep-14 10:33N 40°24' W 073°20'6 5.8
2014-Sep-14 09:33N 40°20' W 073°24'6 5.6
2014-Sep-14 08:33N 40°15' W 073°28'6 5.6
2014-Sep-14 07:33N 40°10' W 073°32'5 5.4
2014-Sep-14 06:33N 40°06' W 073°35'5 5.0
2014-Sep-14 05:33N 40°01' W 073°39'5 5.1
2014-Sep-14 04:33N 39°57' W 073°42'6 5.4
2014-Sep-14 03:31N 39°52' W 073°46'5 5.5
2014-Sep-14 02:33N 39°48' W 073°50'6 5.6
2014-Sep-14 01:33N 39°43' W 073°55'23 5.7
2014-Sep-13 21:33N 39°25' W 074°12'155 5.9
2014-Sep-12 19:04N 37°06' W 075°40'8 5.1
2014-Sep-12 17:31N 36°59' W 075°45'6 4.6
2014-Sep-12 16:06N 36°56' W 075°52'3 4.7
2014-Sep-12 15:26N 36°56' W 075°56'5 4.6
2014-Sep-12 14:24N 36°57' W 076°02'1 1.0
2014-Sep-12 13:28N 36°56' W 076°03'2 2.3
2014-Sep-12 12:32N 36°57' W 076°00'4 3.6
2014-Sep-12 11:33N 36°54' W 075°57'5 3.8
2014-Sep-12 10:19N 36°51' W 075°53'  

Dump ship's entire track history